sensor_id;sensor_type;location;lat;lon;timestamp;temperature;humidity
1506;DHT22;744;51.436;7.356;2023-04-24T00:01:02;15.30;42.90
1506;DHT22;744;51.436;7.356;2023-04-24T00:03:29;15.20;42.80
1506;DHT22;744;51.436;7.356;2023-04-24T00:05:56;15.30;43.00
1506;DHT22;744;51.436;7.356;2023-04-24T00:08:23;15.20;42.90
1506;DHT22;744;51.436;7.356;2023-04-24T00:10:50;15.30;43.00
1506;DHT22;744;51.436;7.356;2023-04-24T00:13:19;15.00;42.70
1506;DHT22;744;51.436;7.356;2023-04-24T00:15:45;15.00;42.70
1506;DHT22;744;51.436;7.356;2023-04-24T00:18:12;14.80;42.50
1506;DHT22;744;51.436;7.356;2023-04-24T00:20:39;14.70;42.40
1506;DHT22;744;51.436;7.356;2023-04-24T00:23:06;14.90;42.60
1506;DHT22;744;51.436;7.356;2023-04-24T00:25:33;14.70;42.40
1506;DHT22;744;51.436;7.356;2023-04-24T00:28:00;14.60;42.40
1506;DHT22;744;51.436;7.356;2023-04-24T00:30:27;14.70;42.40
1506;DHT22;744;51.436;7.356;2023-04-24T00:32:53;14.80;42.50
1506;DHT22;744;51.436;7.356;2023-04-24T00:35:20;14.80;42.50
1506;DHT22;744;51.436;7.356;2023-04-24T00:37:47;14.80;42.50
1506;DHT22;744;51.436;7.356;2023-04-24T00:40:14;14.60;42.80
1506;DHT22;744;51.436;7.356;2023-04-24T00:42:41;14.40;42.80
1506;DHT22;744;51.436;7.356;2023-04-24T00:45:08;14.50;42.60
1506;DHT22;744;51.436;7.356;2023-04-24T00:47:35;14.50;42.50
1506;DHT22;744;51.436;7.356;2023-04-24T00:50:03;14.50;42.60
1506;DHT22;744;51.436;7.356;2023-04-24T00:52:31;14.50;42.70
1506;DHT22;744;51.436;7.356;2023-04-24T00:54:59;14.30;42.90
1506;DHT22;744;51.436;7.356;2023-04-24T00:57:26;14.30;42.80
1506;DHT22;744;51.436;7.356;2023-04-24T00:59:53;14.40;43.10
1506;DHT22;744;51.436;7.356;2023-04-24T01:02:21;14.40;43.20
1506;DHT22;744;51.436;7.356;2023-04-24T01:04:52;14.30;43.20
1506;DHT22;744;51.436;7.356;2023-04-24T01:07:20;14.40;43.20
1506;DHT22;744;51.436;7.356;2023-04-24T01:09:48;14.20;43.10
1506;DHT22;744;51.436;7.356;2023-04-24T01:12:18;14.10;43.20
1506;DHT22;744;51.436;7.356;2023-04-24T01:14:45;14.10;43.20
1506;DHT22;744;51.436;7.356;2023-04-24T01:17:12;14.20;42.90
1506;DHT22;744;51.436;7.356;2023-04-24T01:19:39;14.10;42.80
1506;DHT22;744;51.436;7.356;2023-04-24T01:22:11;14.30;42.80
1506;DHT22;744;51.436;7.356;2023-04-24T01:24:39;14.20;42.70
1506;DHT22;744;51.436;7.356;2023-04-24T01:27:06;14.40;42.60
1506;DHT22;744;51.436;7.356;2023-04-24T01:29:34;14.20;42.30
1506;DHT22;744;51.436;7.356;2023-04-24T01:32:03;14.30;42.10
1506;DHT22;744;51.436;7.356;2023-04-24T01:34:30;14.50;42.20
1506;DHT22;744;51.436;7.356;2023-04-24T01:36:56;14.50;42.30
1506;DHT22;744;51.436;7.356;2023-04-24T01:39:23;14.80;42.50
1506;DHT22;744;51.436;7.356;2023-04-24T01:41:52;14.50;42.20
1506;DHT22;744;51.436;7.356;2023-04-24T01:44:20;14.60;42.40
1506;DHT22;744;51.436;7.356;2023-04-24T01:46:47;14.60;42.40
1506;DHT22;744;51.436;7.356;2023-04-24T01:49:14;14.70;42.40
1506;DHT22;744;51.436;7.356;2023-04-24T01:51:42;14.40;42.20
1506;DHT22;744;51.436;7.356;2023-04-24T01:54:08;14.30;42.10
1506;DHT22;744;51.436;7.356;2023-04-24T01:56:36;14.40;42.20
1506;DHT22;744;51.436;7.356;2023-04-24T01:59:06;14.40;42.20
1506;DHT22;744;51.436;7.356;2023-04-24T02:01:37;14.30;42.10
1506;DHT22;744;51.436;7.356;2023-04-24T02:04:05;14.60;42.40
1506;DHT22;744;51.436;7.356;2023-04-24T02:06:32;14.40;42.20
1506;DHT22;744;51.436;7.356;2023-04-24T02:09:00;14.50;42.30
1506;DHT22;744;51.436;7.356;2023-04-24T02:11:26;14.30;42.10
1506;DHT22;744;51.436;7.356;2023-04-24T02:13:53;14.40;42.20
1506;DHT22;744;51.436;7.356;2023-04-24T02:16:20;14.40;42.20
1506;DHT22;744;51.436;7.356;2023-04-24T02:18:47;14.40;42.20
1506;DHT22;744;51.436;7.356;2023-04-24T02:21:13;13.90;42.50
1506;DHT22;744;51.436;7.356;2023-04-24T02:23:41;13.80;43.30
1506;DHT22;744;51.436;7.356;2023-04-24T02:26:08;13.80;42.70
1506;DHT22;744;51.436;7.356;2023-04-24T02:28:34;13.70;42.80
1506;DHT22;744;51.436;7.356;2023-04-24T02:31:01;13.50;42.80
1506;DHT22;744;51.436;7.356;2023-04-24T02:33:28;13.70;42.90
1506;DHT22;744;51.436;7.356;2023-04-24T02:35:55;13.70;42.90
1506;DHT22;744;51.436;7.356;2023-04-24T02:38:22;13.80;42.90
1506;DHT22;744;51.436;7.356;2023-04-24T02:40:48;13.80;42.90
1506;DHT22;744;51.436;7.356;2023-04-24T02:43:15;13.60;42.90
1506;DHT22;744;51.436;7.356;2023-04-24T02:45:42;13.50;42.80
1506;DHT22;744;51.436;7.356;2023-04-24T02:48:09;13.70;43.00
1506;DHT22;744;51.436;7.356;2023-04-24T02:50:36;13.60;43.10
1506;DHT22;744;51.436;7.356;2023-04-24T02:53:02;13.40;43.20
1506;DHT22;744;51.436;7.356;2023-04-24T02:55:29;13.40;43.20
1506;DHT22;744;51.436;7.356;2023-04-24T02:57:57;13.50;43.40
1506;DHT22;744;51.436;7.356;2023-04-24T03:00:23;13.50;43.70
1506;DHT22;744;51.436;7.356;2023-04-24T03:02:50;13.20;43.40
1506;DHT22;744;51.436;7.356;2023-04-24T03:05:17;13.50;43.80
1506;DHT22;744;51.436;7.356;2023-04-24T03:07:44;13.60;44.00
1506;DHT22;744;51.436;7.356;2023-04-24T03:10:12;13.30;43.70
1506;DHT22;744;51.436;7.356;2023-04-24T03:12:38;13.20;43.70
1506;DHT22;744;51.436;7.356;2023-04-24T03:15:06;13.20;43.90
1506;DHT22;744;51.436;7.356;2023-04-24T03:17:33;13.30;44.10
1506;DHT22;744;51.436;7.356;2023-04-24T03:19:59;13.10;44.10
1506;DHT22;744;51.436;7.356;2023-04-24T03:22:26;13.10;44.30
1506;DHT22;744;51.436;7.356;2023-04-24T03:24:53;13.20;44.50
1506;DHT22;744;51.436;7.356;2023-04-24T03:27:21;13.20;44.50
1506;DHT22;744;51.436;7.356;2023-04-24T03:29:48;13.20;44.80
1506;DHT22;744;51.436;7.356;2023-04-24T03:32:18;13.10;44.80
1506;DHT22;744;51.436;7.356;2023-04-24T03:34:45;13.10;44.80
1506;DHT22;744;51.436;7.356;2023-04-24T03:37:12;12.90;44.60
1506;DHT22;744;51.436;7.356;2023-04-24T03:39:39;13.10;45.00
1506;DHT22;744;51.436;7.356;2023-04-24T03:42:06;12.90;44.80
1506;DHT22;744;51.436;7.356;2023-04-24T03:44:32;13.00;45.00
1506;DHT22;744;51.436;7.356;2023-04-24T03:46:59;12.80;45.00
1506;DHT22;744;51.436;7.356;2023-04-24T03:49:26;13.20;45.30
1506;DHT22;744;51.436;7.356;2023-04-24T03:51:53;13.20;45.00
1506;DHT22;744;51.436;7.356;2023-04-24T03:54:20;13.20;44.90
1506;DHT22;744;51.436;7.356;2023-04-24T03:56:46;13.30;45.00
1506;DHT22;744;51.436;7.356;2023-04-24T03:59:13;13.30;45.10
1506;DHT22;744;51.436;7.356;2023-04-24T04:01:40;12.90;44.90
1506;DHT22;744;51.436;7.356;2023-04-24T04:04:09;13.30;45.30
1506;DHT22;744;51.436;7.356;2023-04-24T04:06:36;13.10;45.10
1506;DHT22;744;51.436;7.356;2023-04-24T04:09:03;13.50;45.20
1506;DHT22;744;51.436;7.356;2023-04-24T04:11:30;13.40;45.00
1506;DHT22;744;51.436;7.356;2023-04-24T04:13:57;13.40;45.50
1506;DHT22;744;51.436;7.356;2023-04-24T04:16:23;13.50;44.80
1506;DHT22;744;51.436;7.356;2023-04-24T04:18:50;13.30;44.80
1506;DHT22;744;51.436;7.356;2023-04-24T04:21:17;13.20;44.70
1506;DHT22;744;51.436;7.356;2023-04-24T04:23:44;13.30;44.90
1506;DHT22;744;51.436;7.356;2023-04-24T04:26:11;13.40;45.30
1506;DHT22;744;51.436;7.356;2023-04-24T04:28:39;13.40;45.50
1506;DHT22;744;51.436;7.356;2023-04-24T04:31:06;13.10;45.30
1506;DHT22;744;51.436;7.356;2023-04-24T04:33:34;13.10;45.10
1506;DHT22;744;51.436;7.356;2023-04-24T04:36:02;13.20;45.20
1506;DHT22;744;51.436;7.356;2023-04-24T04:38:30;13.10;45.00
1506;DHT22;744;51.436;7.356;2023-04-24T04:40:57;13.40;45.00
1506;DHT22;744;51.436;7.356;2023-04-24T04:43:24;13.40;45.00
1506;DHT22;744;51.436;7.356;2023-04-24T04:45:52;13.50;45.40
1506;DHT22;744;51.436;7.356;2023-04-24T04:48:19;13.40;45.00
1506;DHT22;744;51.436;7.356;2023-04-24T04:50:45;13.40;44.80
1506;DHT22;744;51.436;7.356;2023-04-24T04:53:12;13.30;44.70
1506;DHT22;744;51.436;7.356;2023-04-24T04:55:39;13.20;44.60
1506;DHT22;744;51.436;7.356;2023-04-24T04:58:06;13.10;44.60
1506;DHT22;744;51.436;7.356;2023-04-24T05:00:32;13.20;45.10
1506;DHT22;744;51.436;7.356;2023-04-24T05:03:02;13.20;45.50
1506;DHT22;744;51.436;7.356;2023-04-24T05:05:46;13.00;45.40
1506;DHT22;744;51.436;7.356;2023-04-24T05:08:13;12.90;45.30
1506;DHT22;744;51.436;7.356;2023-04-24T05:10:53;13.10;45.40
1506;DHT22;744;51.436;7.356;2023-04-24T05:13:19;13.20;45.50
1506;DHT22;744;51.436;7.356;2023-04-24T05:16:01;13.20;45.40
1506;DHT22;744;51.436;7.356;2023-04-24T05:18:28;13.30;45.70
1506;DHT22;744;51.436;7.356;2023-04-24T05:20:55;13.10;45.50
1506;DHT22;744;51.436;7.356;2023-04-24T05:23:22;13.00;45.40
1506;DHT22;744;51.436;7.356;2023-04-24T05:25:48;13.00;45.30
1506;DHT22;744;51.436;7.356;2023-04-24T05:28:15;13.20;45.60
1506;DHT22;744;51.436;7.356;2023-04-24T05:30:42;13.00;45.40
1506;DHT22;744;51.436;7.356;2023-04-24T05:33:09;13.40;45.40
1506;DHT22;744;51.436;7.356;2023-04-24T05:35:36;13.10;45.00
1506;DHT22;744;51.436;7.356;2023-04-24T05:38:03;13.10;45.10
1506;DHT22;744;51.436;7.356;2023-04-24T05:40:30;13.20;45.30
1506;DHT22;744;51.436;7.356;2023-04-24T05:42:56;13.10;45.40
1506;DHT22;744;51.436;7.356;2023-04-24T05:45:23;13.10;45.50
1506;DHT22;744;51.436;7.356;2023-04-24T05:47:50;13.00;45.50
1506;DHT22;744;51.436;7.356;2023-04-24T05:50:19;12.90;45.70
1506;DHT22;744;51.436;7.356;2023-04-24T05:52:45;12.90;46.10
1506;DHT22;744;51.436;7.356;2023-04-24T05:55:12;12.90;46.20
1506;DHT22;744;51.436;7.356;2023-04-24T05:57:40;12.70;47.10
1506;DHT22;744;51.436;7.356;2023-04-24T06:00:07;13.00;47.00
1506;DHT22;744;51.436;7.356;2023-04-24T06:02:34;12.70;47.00
1506;DHT22;744;51.436;7.356;2023-04-24T06:05:01;13.10;47.50
1506;DHT22;744;51.436;7.356;2023-04-24T06:07:28;12.80;47.40
1506;DHT22;744;51.436;7.356;2023-04-24T06:09:55;12.90;47.60
1506;DHT22;744;51.436;7.356;2023-04-24T06:12:23;13.00;47.80
1506;DHT22;744;51.436;7.356;2023-04-24T06:14:49;12.80;47.70
1506;DHT22;744;51.436;7.356;2023-04-24T06:17:16;12.90;47.90
1506;DHT22;744;51.436;7.356;2023-04-24T06:19:43;12.90;48.10
1506;DHT22;744;51.436;7.356;2023-04-24T06:22:10;12.90;48.30
1506;DHT22;744;51.436;7.356;2023-04-24T06:24:37;12.90;48.10
1506;DHT22;744;51.436;7.356;2023-04-24T06:27:04;12.90;48.10
1506;DHT22;744;51.436;7.356;2023-04-24T06:29:30;12.80;48.20
1506;DHT22;744;51.436;7.356;2023-04-24T06:31:57;13.00;48.30
1506;DHT22;744;51.436;7.356;2023-04-24T06:34:24;12.90;48.00
1506;DHT22;744;51.436;7.356;2023-04-24T06:36:51;12.80;47.80
1506;DHT22;744;51.436;7.356;2023-04-24T06:39:18;13.00;48.00
1506;DHT22;744;51.436;7.356;2023-04-24T06:41:45;12.70;48.00
1506;DHT22;744;51.436;7.356;2023-04-24T06:44:11;12.40;48.00
1506;DHT22;744;51.436;7.356;2023-04-24T06:46:38;12.90;48.30
1506;DHT22;744;51.436;7.356;2023-04-24T06:49:07;12.70;48.20
1506;DHT22;744;51.436;7.356;2023-04-24T06:51:34;12.80;48.20
1506;DHT22;744;51.436;7.356;2023-04-24T06:54:01;12.70;48.30
1506;DHT22;744;51.436;7.356;2023-04-24T06:56:28;12.60;48.40
1506;DHT22;744;51.436;7.356;2023-04-24T06:58:56;13.00;48.80
1506;DHT22;744;51.436;7.356;2023-04-24T07:01:23;13.00;48.70
1506;DHT22;744;51.436;7.356;2023-04-24T07:03:49;12.90;48.50
1506;DHT22;744;51.436;7.356;2023-04-24T07:06:17;13.00;48.90
1506;DHT22;744;51.436;7.356;2023-04-24T07:08:45;13.10;48.90
1506;DHT22;744;51.436;7.356;2023-04-24T07:11:13;13.10;48.70
1506;DHT22;744;51.436;7.356;2023-04-24T07:13:39;13.00;48.70
1506;DHT22;744;51.436;7.356;2023-04-24T07:16:08;13.00;48.70
1506;DHT22;744;51.436;7.356;2023-04-24T07:18:36;13.10;49.00
1506;DHT22;744;51.436;7.356;2023-04-24T07:21:04;13.00;49.20
1506;DHT22;744;51.436;7.356;2023-04-24T07:23:30;13.00;49.10
1506;DHT22;744;51.436;7.356;2023-04-24T07:25:57;12.60;49.20
1506;DHT22;744;51.436;7.356;2023-04-24T07:28:24;12.80;49.60
1506;DHT22;744;51.436;7.356;2023-04-24T07:30:52;12.80;49.60
1506;DHT22;744;51.436;7.356;2023-04-24T07:33:20;12.70;49.30
1506;DHT22;744;51.436;7.356;2023-04-24T07:35:48;12.80;49.40
1506;DHT22;744;51.436;7.356;2023-04-24T07:38:15;12.80;49.40
1506;DHT22;744;51.436;7.356;2023-04-24T07:40:41;13.00;49.70
1506;DHT22;744;51.436;7.356;2023-04-24T07:43:08;12.80;49.20
1506;DHT22;744;51.436;7.356;2023-04-24T07:45:35;12.90;49.60
1506;DHT22;744;51.436;7.356;2023-04-24T07:48:04;12.60;49.50
1506;DHT22;744;51.436;7.356;2023-04-24T07:50:32;12.50;49.40
1506;DHT22;744;51.436;7.356;2023-04-24T07:52:59;12.50;49.40
1506;DHT22;744;51.436;7.356;2023-04-24T07:55:26;12.40;49.30
1506;DHT22;744;51.436;7.356;2023-04-24T07:57:54;12.40;49.30
1506;DHT22;744;51.436;7.356;2023-04-24T08:00:21;12.60;49.50
1506;DHT22;744;51.436;7.356;2023-04-24T08:02:48;12.30;49.20
1506;DHT22;744;51.436;7.356;2023-04-24T08:05:15;12.50;49.40
1506;DHT22;744;51.436;7.356;2023-04-24T08:07:42;12.60;49.40
1506;DHT22;744;51.436;7.356;2023-04-24T08:10:12;12.50;49.20
1506;DHT22;744;51.436;7.356;2023-04-24T08:12:40;13.00;49.30
1506;DHT22;744;51.436;7.356;2023-04-24T08:15:08;12.60;49.30
1506;DHT22;744;51.436;7.356;2023-04-24T08:17:35;12.70;49.60
1506;DHT22;744;51.436;7.356;2023-04-24T08:20:03;12.40;49.30
1506;DHT22;744;51.436;7.356;2023-04-24T08:22:31;12.60;49.50
1506;DHT22;744;51.436;7.356;2023-04-24T08:25:00;12.30;49.20
1506;DHT22;744;51.436;7.356;2023-04-24T08:27:27;12.20;49.20
1506;DHT22;744;51.436;7.356;2023-04-24T08:29:54;12.50;49.40
1506;DHT22;744;51.436;7.356;2023-04-24T08:32:21;12.40;49.30
1506;DHT22;744;51.436;7.356;2023-04-24T08:34:48;12.20;49.20
1506;DHT22;744;51.436;7.356;2023-04-24T08:37:15;12.30;49.20
1506;DHT22;744;51.436;7.356;2023-04-24T08:39:42;12.50;49.40
1506;DHT22;744;51.436;7.356;2023-04-24T08:42:11;12.40;49.30
1506;DHT22;744;51.436;7.356;2023-04-24T08:44:39;12.50;49.40
1506;DHT22;744;51.436;7.356;2023-04-24T08:47:07;12.40;49.30
1506;DHT22;744;51.436;7.356;2023-04-24T08:49:36;12.20;49.20
1506;DHT22;744;51.436;7.356;2023-04-24T08:52:03;12.10;49.00
1506;DHT22;744;51.436;7.356;2023-04-24T08:54:31;12.10;49.10
1506;DHT22;744;51.436;7.356;2023-04-24T08:57:00;12.10;49.10
1506;DHT22;744;51.436;7.356;2023-04-24T08:59:31;11.90;49.30
1506;DHT22;744;51.436;7.356;2023-04-24T09:01:58;11.90;49.60
1506;DHT22;744;51.436;7.356;2023-04-24T09:04:25;12.10;49.80
1506;DHT22;744;51.436;7.356;2023-04-24T09:06:56;12.00;49.50
1506;DHT22;744;51.436;7.356;2023-04-24T09:09:25;12.10;49.70
1506;DHT22;744;51.436;7.356;2023-04-24T09:11:52;12.10;49.80
1506;DHT22;744;51.436;7.356;2023-04-24T09:14:22;12.00;49.90
1506;DHT22;744;51.436;7.356;2023-04-24T09:16:50;11.80;49.90
1506;DHT22;744;51.436;7.356;2023-04-24T09:19:17;12.20;50.30
1506;DHT22;744;51.436;7.356;2023-04-24T09:21:47;12.00;50.20
1506;DHT22;744;51.436;7.356;2023-04-24T09:24:19;12.00;50.30
1506;DHT22;744;51.436;7.356;2023-04-24T09:26:55;12.20;50.50
1506;DHT22;744;51.436;7.356;2023-04-24T09:29:24;11.90;50.50
1506;DHT22;744;51.436;7.356;2023-04-24T09:31:51;12.00;50.60
1506;DHT22;744;51.436;7.356;2023-04-24T09:34:26;12.20;50.80
1506;DHT22;744;51.436;7.356;2023-04-24T09:36:54;12.00;51.00
1506;DHT22;744;51.436;7.356;2023-04-24T09:39:20;12.20;51.40
1506;DHT22;744;51.436;7.356;2023-04-24T09:41:52;12.00;51.10
1506;DHT22;744;51.436;7.356;2023-04-24T09:44:20;12.20;51.60
1506;DHT22;744;51.436;7.356;2023-04-24T09:46:52;12.00;51.60
1506;DHT22;744;51.436;7.356;2023-04-24T09:49:27;12.20;51.90
1506;DHT22;744;51.436;7.356;2023-04-24T09:52:09;12.00;51.80
1506;DHT22;744;51.436;7.356;2023-04-24T09:54:37;12.10;51.90
1506;DHT22;744;51.436;7.356;2023-04-24T09:57:04;12.10;52.00
1506;DHT22;744;51.436;7.356;2023-04-24T09:59:31;12.30;51.90
1506;DHT22;744;51.436;7.356;2023-04-24T10:01:59;12.30;52.20
1506;DHT22;744;51.436;7.356;2023-04-24T10:04:28;12.00;52.40
1506;DHT22;744;51.436;7.356;2023-04-24T10:06:56;11.80;52.90
1506;DHT22;744;51.436;7.356;2023-04-24T10:09:25;11.70;53.00
1506;DHT22;744;51.436;7.356;2023-04-24T10:11:54;11.70;53.00
1506;DHT22;744;51.436;7.356;2023-04-24T10:14:23;11.30;53.20
1506;DHT22;744;51.436;7.356;2023-04-24T10:16:53;11.40;53.30
1506;DHT22;744;51.436;7.356;2023-04-24T10:19:20;11.50;53.50
1506;DHT22;744;51.436;7.356;2023-04-24T10:21:47;11.40;53.40
1506;DHT22;744;51.436;7.356;2023-04-24T10:24:18;11.20;52.90
1506;DHT22;744;51.436;7.356;2023-04-24T10:26:45;11.30;52.90
1506;DHT22;744;51.436;7.356;2023-04-24T10:29:16;11.10;52.90
1506;DHT22;744;51.436;7.356;2023-04-24T10:31:43;11.10;53.10
1506;DHT22;744;51.436;7.356;2023-04-24T10:34:16;11.30;53.10
1506;DHT22;744;51.436;7.356;2023-04-24T10:36:53;11.10;53.10
1506;DHT22;744;51.436;7.356;2023-04-24T10:39:23;11.20;53.00
1506;DHT22;744;51.436;7.356;2023-04-24T10:41:54;11.20;53.40
1506;DHT22;744;51.436;7.356;2023-04-24T10:44:24;11.30;52.70
1506;DHT22;744;51.436;7.356;2023-04-24T10:46:55;11.50;52.90
1506;DHT22;744;51.436;7.356;2023-04-24T10:49:30;11.50;52.90
1506;DHT22;744;51.436;7.356;2023-04-24T10:52:02;11.50;53.00
1506;DHT22;744;51.436;7.356;2023-04-24T10:54:36;11.50;52.90
1506;DHT22;744;51.436;7.356;2023-04-24T11:02:37;11.30;53.20
1506;DHT22;744;51.436;7.356;2023-04-24T11:05:05;11.40;53.60
1506;DHT22;744;51.436;7.356;2023-04-24T11:08:14;11.30;53.40
1506;DHT22;744;51.436;7.356;2023-04-24T11:10:47;11.60;53.80
1506;DHT22;744;51.436;7.356;2023-04-24T11:13:21;11.60;53.60
1506;DHT22;744;51.436;7.356;2023-04-24T11:19:00;11.60;53.50
1506;DHT22;744;51.436;7.356;2023-04-24T11:21:44;11.50;53.50
1506;DHT22;744;51.436;7.356;2023-04-24T11:24:26;11.60;53.80
1506;DHT22;744;51.436;7.356;2023-04-24T11:26:57;11.50;53.60
1506;DHT22;744;51.436;7.356;2023-04-24T11:32:18;11.50;53.70
1506;DHT22;744;51.436;7.356;2023-04-24T11:34:48;11.70;54.00
1506;DHT22;744;51.436;7.356;2023-04-24T11:37:15;11.90;54.10
1506;DHT22;744;51.436;7.356;2023-04-24T11:39:42;11.80;53.90
1506;DHT22;744;51.436;7.356;2023-04-24T11:42:09;11.80;53.80
1506;DHT22;744;51.436;7.356;2023-04-24T11:44:36;11.70;53.80
1506;DHT22;744;51.436;7.356;2023-04-24T11:47:08;11.90;54.10
1506;DHT22;744;51.436;7.356;2023-04-24T11:49:38;11.90;53.70
1506;DHT22;744;51.436;7.356;2023-04-24T11:52:05;12.00;53.60
1506;DHT22;744;51.436;7.356;2023-04-24T11:54:33;12.00;53.40
1506;DHT22;744;51.436;7.356;2023-04-24T11:57:04;11.80;53.30
1506;DHT22;744;51.436;7.356;2023-04-24T11:59:35;11.90;53.20
1506;DHT22;744;51.436;7.356;2023-04-24T12:02:03;12.30;53.30
1506;DHT22;744;51.436;7.356;2023-04-24T12:04:41;12.10;53.20
1506;DHT22;744;51.436;7.356;2023-04-24T12:07:08;11.90;53.20
1506;DHT22;744;51.436;7.356;2023-04-24T12:09:46;12.20;53.40
1506;DHT22;744;51.436;7.356;2023-04-24T12:12:17;11.90;53.20
1506;DHT22;744;51.436;7.356;2023-04-24T12:14:49;11.80;53.10
1506;DHT22;744;51.436;7.356;2023-04-24T12:17:16;12.20;53.20
1506;DHT22;744;51.436;7.356;2023-04-24T12:19:47;11.90;52.60
1506;DHT22;744;51.436;7.356;2023-04-24T12:22:14;11.80;52.40
1506;DHT22;744;51.436;7.356;2023-04-24T12:25:02;12.20;52.60
1506;DHT22;744;51.436;7.356;2023-04-24T12:27:33;12.20;52.40
1506;DHT22;744;51.436;7.356;2023-04-24T12:30:02;12.00;52.30
1506;DHT22;744;51.436;7.356;2023-04-24T12:32:29;12.30;52.40
1506;DHT22;744;51.436;7.356;2023-04-24T12:34:56;12.30;51.80
1506;DHT22;744;51.436;7.356;2023-04-24T12:37:32;12.40;51.50
1506;DHT22;744;51.436;7.356;2023-04-24T12:42:28;12.70;51.30
1506;DHT22;744;51.436;7.356;2023-04-24T12:45:00;12.90;51.00
1506;DHT22;744;51.436;7.356;2023-04-24T12:47:27;12.80;50.50
1506;DHT22;744;51.436;7.356;2023-04-24T12:49:54;12.90;50.30
1506;DHT22;744;51.436;7.356;2023-04-24T12:52:23;12.70;49.80
1506;DHT22;744;51.436;7.356;2023-04-24T12:54:51;12.50;49.40
1506;DHT22;744;51.436;7.356;2023-04-24T12:57:18;12.80;49.70
1506;DHT22;744;51.436;7.356;2023-04-24T12:59:45;12.60;49.50
1506;DHT22;744;51.436;7.356;2023-04-24T13:02:12;12.50;49.40
1506;DHT22;744;51.436;7.356;2023-04-24T13:04:39;12.60;49.60
1506;DHT22;744;51.436;7.356;2023-04-24T13:07:06;12.70;49.60
1506;DHT22;744;51.436;7.356;2023-04-24T13:09:34;12.30;49.20
1506;DHT22;744;51.436;7.356;2023-04-24T13:12:02;12.30;49.20
1506;DHT22;744;51.436;7.356;2023-04-24T13:14:29;12.20;49.20
1506;DHT22;744;51.436;7.356;2023-04-24T13:16:55;12.50;49.40
1506;DHT22;744;51.436;7.356;2023-04-24T13:19:25;12.50;50.10
1506;DHT22;744;51.436;7.356;2023-04-24T13:21:56;12.60;49.50
1506;DHT22;744;51.436;7.356;2023-04-24T13:24:23;12.50;49.40
1506;DHT22;744;51.436;7.356;2023-04-24T13:26:52;12.60;49.50
1506;DHT22;744;51.436;7.356;2023-04-24T13:29:19;12.60;49.50
1506;DHT22;744;51.436;7.356;2023-04-24T13:31:46;12.90;49.30
1506;DHT22;744;51.436;7.356;2023-04-24T13:34:13;13.00;48.80
1506;DHT22;744;51.436;7.356;2023-04-24T13:36:40;13.10;48.70
1506;DHT22;744;51.436;7.356;2023-04-24T13:39:07;13.30;48.60
1506;DHT22;744;51.436;7.356;2023-04-24T13:41:34;13.40;47.70
1506;DHT22;744;51.436;7.356;2023-04-24T13:44:03;12.90;46.80
1506;DHT22;744;51.436;7.356;2023-04-24T13:46:30;12.90;46.80
1506;DHT22;744;51.436;7.356;2023-04-24T13:48:57;13.00;46.70
1506;DHT22;744;51.436;7.356;2023-04-24T13:51:26;13.00;46.10
1506;DHT22;744;51.436;7.356;2023-04-24T13:53:55;13.30;46.00
1506;DHT22;744;51.436;7.356;2023-04-24T13:56:22;13.10;45.50
1506;DHT22;744;51.436;7.356;2023-04-24T13:58:49;13.10;45.60
1506;DHT22;744;51.436;7.356;2023-04-24T14:01:16;13.20;45.60
1506;DHT22;744;51.436;7.356;2023-04-24T14:03:43;13.40;45.80
1506;DHT22;744;51.436;7.356;2023-04-24T14:06:11;13.40;45.10
1506;DHT22;744;51.436;7.356;2023-04-24T14:08:37;13.30;45.50
1506;DHT22;744;51.436;7.356;2023-04-24T14:11:04;13.30;45.70
1506;DHT22;744;51.436;7.356;2023-04-24T14:13:31;13.10;45.10
1506;DHT22;744;51.436;7.356;2023-04-24T14:15:58;13.10;45.50
1506;DHT22;744;51.436;7.356;2023-04-24T14:18:25;13.00;45.20
1506;DHT22;744;51.436;7.356;2023-04-24T14:20:53;13.00;45.40
1506;DHT22;744;51.436;7.356;2023-04-24T14:23:20;13.10;45.60
1506;DHT22;744;51.436;7.356;2023-04-24T14:25:46;13.30;45.50
1506;DHT22;744;51.436;7.356;2023-04-24T14:28:18;13.60;45.40
1506;DHT22;744;51.436;7.356;2023-04-24T14:30:46;13.50;44.80
1506;DHT22;744;51.436;7.356;2023-04-24T14:33:12;13.60;44.70
1506;DHT22;744;51.436;7.356;2023-04-24T14:35:42;13.60;44.60
1506;DHT22;744;51.436;7.356;2023-04-24T14:38:10;13.40;43.90
1506;DHT22;744;51.436;7.356;2023-04-24T14:40:37;13.40;44.30
1506;DHT22;744;51.436;7.356;2023-04-24T14:43:07;13.50;44.20
1506;DHT22;744;51.436;7.356;2023-04-24T14:45:34;13.50;43.70
1506;DHT22;744;51.436;7.356;2023-04-24T14:48:01;13.40;43.80
1506;DHT22;744;51.436;7.356;2023-04-24T14:50:28;13.70;43.70
1506;DHT22;744;51.436;7.356;2023-04-24T14:52:56;13.70;43.60
1506;DHT22;744;51.436;7.356;2023-04-24T14:55:25;13.70;43.40
1506;DHT22;744;51.436;7.356;2023-04-24T14:57:53;13.70;43.70
1506;DHT22;744;51.436;7.356;2023-04-24T15:00:21;13.60;43.40
1506;DHT22;744;51.436;7.356;2023-04-24T15:02:49;13.60;43.00
1506;DHT22;744;51.436;7.356;2023-04-24T15:05:16;13.90;43.50
1506;DHT22;744;51.436;7.356;2023-04-24T15:07:43;13.60;43.00
1506;DHT22;744;51.436;7.356;2023-04-24T15:10:12;13.70;43.00
1506;DHT22;744;51.436;7.356;2023-04-24T15:12:38;13.70;43.20
1506;DHT22;744;51.436;7.356;2023-04-24T15:15:06;13.50;42.90
1506;DHT22;744;51.436;7.356;2023-04-24T15:17:33;13.70;42.70
1506;DHT22;744;51.436;7.356;2023-04-24T15:20:00;13.60;42.90
1506;DHT22;744;51.436;7.356;2023-04-24T15:22:27;13.40;43.00
1506;DHT22;744;51.436;7.356;2023-04-24T15:24:54;13.60;44.10
1506;DHT22;744;51.436;7.356;2023-04-24T15:27:21;13.40;43.90
1506;DHT22;744;51.436;7.356;2023-04-24T15:29:47;13.20;44.70
1506;DHT22;744;51.436;7.356;2023-04-24T15:32:14;12.70;45.20
1506;DHT22;744;51.436;7.356;2023-04-24T15:34:41;12.50;45.80
1506;DHT22;744;51.436;7.356;2023-04-24T15:37:09;12.70;46.40
1506;DHT22;744;51.436;7.356;2023-04-24T15:39:36;12.70;46.60
1506;DHT22;744;51.436;7.356;2023-04-24T15:42:03;12.90;46.80
1506;DHT22;744;51.436;7.356;2023-04-24T15:44:30;12.90;46.70
1506;DHT22;744;51.436;7.356;2023-04-24T15:47:00;13.00;46.60
1506;DHT22;744;51.436;7.356;2023-04-24T15:49:27;13.20;46.60
1506;DHT22;744;51.436;7.356;2023-04-24T15:51:53;13.00;46.40
1506;DHT22;744;51.436;7.356;2023-04-24T15:54:20;13.10;46.60
1506;DHT22;744;51.436;7.356;2023-04-24T15:56:49;13.30;46.60
1506;DHT22;744;51.436;7.356;2023-04-24T15:59:17;13.20;46.40
1506;DHT22;744;51.436;7.356;2023-04-24T16:01:44;13.10;46.20
1506;DHT22;744;51.436;7.356;2023-04-24T16:04:10;13.40;46.40
1506;DHT22;744;51.436;7.356;2023-04-24T16:06:38;13.30;45.90
1506;DHT22;744;51.436;7.356;2023-04-24T16:09:05;13.60;46.60
1506;DHT22;744;51.436;7.356;2023-04-24T16:11:32;13.40;45.40
1506;DHT22;744;51.436;7.356;2023-04-24T16:14:01;13.20;45.20
1506;DHT22;744;51.436;7.356;2023-04-24T16:16:28;13.70;45.60
1506;DHT22;744;51.436;7.356;2023-04-24T16:18:55;13.60;45.10
1506;DHT22;744;51.436;7.356;2023-04-24T16:21:22;13.40;43.90
1506;DHT22;744;51.436;7.356;2023-04-24T16:23:50;13.30;44.00
1506;DHT22;744;51.436;7.356;2023-04-24T16:26:16;13.30;44.00
1506;DHT22;744;51.436;7.356;2023-04-24T16:28:43;13.20;43.70
1506;DHT22;744;51.436;7.356;2023-04-24T16:31:10;13.40;43.70
1506;DHT22;744;51.436;7.356;2023-04-24T16:33:37;13.60;43.60
1506;DHT22;744;51.436;7.356;2023-04-24T16:36:05;13.30;42.70